createdAt,value
2023-03-17T06:49:53.676Z,11.70
2023-03-17T06:52:56.580Z,16.42
2023-03-17T06:55:59.059Z,12.95
2023-03-17T07:03:04.887Z,12.27
2023-03-17T07:06:08.650Z,14.35
2023-03-17T07:09:11.207Z,12.73
2023-03-17T07:12:14.303Z,11.23
2023-03-17T07:15:18.822Z,13.95
2023-03-17T07:18:22.636Z,15.10
2023-03-17T07:21:25.314Z,10.02
2023-03-17T07:24:27.945Z,13.38
2023-03-17T07:27:31.171Z,9.50
2023-03-17T07:30:33.792Z,11.00
2023-03-17T07:33:38.052Z,15.43
2023-03-17T07:36:40.687Z,10.98
2023-03-17T07:39:43.722Z,11.15
2023-03-17T07:42:46.379Z,13.13
2023-03-17T07:45:48.981Z,12.00
2023-03-17T07:48:53.494Z,10.40
2023-03-17T07:51:55.973Z,10.32
2023-03-17T07:54:58.826Z,11.07
2023-03-17T07:58:01.943Z,13.25
2023-03-17T08:01:05.295Z,13.15
2023-03-17T08:04:10.839Z,13.25
2023-03-17T08:07:14.628Z,8.02
2023-03-17T08:10:18.227Z,10.90
2023-03-17T08:13:20.775Z,8.93
2023-03-17T08:16:23.352Z,9.93
2023-03-17T08:19:27.232Z,12.48
2023-03-17T08:22:29.715Z,11.45
2023-03-17T08:25:32.694Z,13.38
2023-03-17T08:28:35.179Z,11.40
2023-03-17T08:31:38.074Z,12.68
2023-03-17T08:34:44.336Z,11.65
2023-03-17T08:37:47.930Z,11.00
2023-03-17T08:40:50.929Z,10.60
2023-03-17T08:43:54.372Z,10.50
2023-03-17T08:46:57.922Z,10.18
2023-03-17T08:50:02.037Z,9.95
2023-03-17T08:53:04.531Z,11.75
2023-03-17T08:56:08.416Z,9.63
2023-03-17T08:59:12.529Z,12.13
2023-03-17T09:02:15.933Z,12.85
2023-03-17T09:05:20.662Z,10.70
2023-03-17T09:08:24.087Z,10.40
2023-03-17T09:11:28.761Z,10.38
2023-03-17T09:14:40.051Z,8.20
2023-03-17T09:17:45.208Z,10.32
2023-03-17T09:20:49.015Z,13.23
2023-03-17T09:23:51.498Z,11.80
2023-03-17T09:26:53.968Z,8.98
2023-03-17T09:29:56.454Z,8.57
2023-03-17T09:32:59.147Z,7.47
2023-03-17T09:36:03.067Z,6.00
2023-03-17T09:39:06.259Z,6.93
2023-03-17T09:42:19.839Z,10.95
2023-03-17T09:45:31.292Z,8.98
2023-03-17T09:48:49.360Z,6.80
2023-03-17T09:51:54.027Z,7.75
2023-03-17T09:54:57.866Z,8.38
2023-03-17T09:58:03.357Z,8.05
2023-03-17T10:01:06.393Z,5.90
2023-03-17T10:04:10.494Z,8.30
2023-03-17T10:07:18.280Z,6.28
2023-03-17T10:10:29.729Z,6.32
2023-03-17T10:13:45.627Z,5.88
2023-03-17T10:16:54.008Z,6.88
2023-03-17T10:20:01.692Z,6.22
2023-03-17T10:23:10.938Z,5.00
2023-03-17T10:26:27.398Z,6.13
2023-03-17T10:29:31.481Z,5.85
2023-03-17T10:32:38.668Z,8.90
2023-03-17T10:35:41.310Z,7.22
2023-03-17T10:38:54.173Z,6.15
2023-03-17T10:41:58.475Z,6.50
2023-03-17T10:45:08.850Z,5.90
2023-03-17T10:48:18.624Z,6.75
2023-03-17T10:51:30.909Z,7.53
2023-03-17T10:54:36.125Z,6.45
2023-03-17T10:57:39.772Z,6.97
2023-03-17T11:00:55.372Z,6.18
2023-03-17T11:04:00.448Z,6.20
2023-03-17T11:07:10.334Z,9.27
2023-03-17T11:10:21.357Z,11.07
2023-03-17T11:13:30.147Z,4.73
2023-03-17T11:16:35.926Z,7.13
2023-03-17T11:19:45.004Z,5.30
2023-03-17T11:22:54.958Z,6.38
2023-03-17T11:26:14.670Z,11.85
2023-03-17T11:29:37.428Z,6.32
2023-03-17T11:32:45.916Z,5.35
2023-03-17T11:35:55.774Z,5.65
2023-03-17T11:39:04.177Z,6.97
2023-03-17T11:42:18.213Z,6.70
2023-03-17T11:45:28.510Z,6.55
2023-03-17T11:48:41.592Z,5.88
2023-03-17T11:51:56.636Z,8.40
2023-03-17T11:55:06.141Z,4.78
2023-03-17T11:58:16.813Z,5.43
2023-03-17T12:01:27.158Z,6.15
2023-03-17T12:04:35.194Z,6.38
2023-03-17T12:07:42.181Z,9.30
2023-03-17T12:10:49.479Z,8.52
2023-03-17T12:13:58.509Z,6.32
2023-03-17T12:17:12.363Z,6.00
2023-03-17T12:20:19.474Z,5.43
2023-03-17T12:23:30.030Z,9.43
2023-03-17T12:26:37.768Z,4.88
2023-03-17T12:29:47.349Z,5.45
2023-03-17T12:32:57.028Z,7.80
2023-03-17T12:36:01.115Z,5.68
2023-03-17T12:39:10.231Z,5.32
2023-03-17T12:42:33.672Z,8.27
2023-03-17T12:45:49.363Z,10.00
2023-03-17T12:49:27.514Z,7.18
2023-03-17T12:52:44.185Z,5.70
2023-03-17T12:55:50.086Z,4.97
2023-03-17T12:58:54.491Z,4.88
2023-03-17T13:02:06.278Z,6.70
2023-03-17T13:08:18.540Z,6.30
2023-03-17T13:11:28.411Z,5.57
2023-03-17T13:14:42.543Z,5.93
2023-03-17T13:17:46.376Z,5.65
2023-03-17T13:21:08.154Z,6.15
2023-03-17T13:24:23.447Z,5.93
2023-03-17T13:27:49.169Z,4.30
2023-03-17T13:31:11.434Z,5.30
2023-03-17T13:34:17.791Z,7.40
2023-03-17T13:37:28.859Z,6.07
2023-03-17T13:40:40.663Z,6.30
2023-03-17T13:46:54.553Z,4.65
2023-03-17T13:50:03.837Z,7.07
2023-03-17T13:53:11.633Z,5.15
2023-03-17T13:56:19.947Z,5.13
2023-03-17T13:59:27.589Z,6.13
2023-03-17T14:02:32.872Z,8.55
2023-03-17T14:05:38.442Z,5.38
2023-03-17T14:08:46.566Z,6.78
2023-03-17T14:11:49.179Z,4.85
2023-03-17T14:14:57.340Z,4.00
2023-03-17T14:18:04.342Z,6.22
2023-03-17T14:21:20.973Z,4.30
2023-03-17T14:24:25.309Z,5.05
2023-03-17T14:27:29.397Z,4.80
2023-03-17T14:30:34.041Z,7.10
2023-03-17T14:33:39.128Z,8.88
2023-03-17T14:36:43.634Z,7.53
2023-03-17T14:39:48.145Z,8.05
2023-03-17T14:42:50.931Z,5.43
2023-03-17T14:45:59.944Z,4.38
2023-03-17T14:49:04.896Z,5.53
2023-03-17T14:52:21.259Z,10.63
2023-03-17T14:55:35.730Z,6.05
2023-03-17T14:58:42.573Z,6.18
2023-03-17T15:01:48.601Z,5.90
2023-03-17T15:04:54.374Z,7.13
2023-03-17T15:07:58.257Z,6.53
2023-03-17T15:11:02.926Z,3.58
2023-03-17T15:14:15.740Z,4.78
2023-03-17T15:17:21.189Z,5.82
2023-03-17T15:20:24.247Z,7.45
2023-03-17T15:23:30.556Z,6.53
2023-03-17T15:26:33.132Z,8.05
2023-03-17T15:29:35.714Z,3.50
2023-03-17T15:32:38.927Z,8.02
2023-03-17T15:35:41.523Z,4.75
2023-03-17T15:38:45.730Z,10.63
2023-03-17T15:41:48.313Z,4.13
2023-03-17T15:44:51.315Z,4.20
2023-03-17T15:47:54.441Z,4.80
2023-03-17T15:50:59.946Z,5.65
2023-03-17T15:54:04.038Z,4.50
2023-03-17T15:57:06.647Z,4.80
2023-03-17T16:00:12.901Z,6.40
2023-03-17T16:03:19.912Z,5.55
2023-03-17T16:06:24.055Z,6.03
2023-03-17T16:09:27.852Z,5.82
2023-03-17T16:12:30.414Z,3.72
2023-03-17T16:15:37.004Z,3.47
2023-03-17T16:18:39.563Z,5.43
2023-03-17T16:21:42.438Z,7.68
2023-03-17T16:24:46.273Z,6.15
2023-03-17T16:27:49.636Z,5.68
2023-03-17T16:30:54.305Z,8.40
2023-03-17T16:33:58.006Z,5.68
2023-03-17T16:37:00.532Z,3.38
2023-03-17T16:40:05.058Z,3.72
2023-03-17T16:43:25.243Z,3.53
2023-03-17T16:46:34.461Z,5.13
2023-03-17T16:49:37.990Z,7.75
2023-03-17T16:52:40.813Z,7.43
2023-03-17T16:55:45.928Z,6.40
2023-03-17T16:58:49.402Z,9.00
2023-03-17T17:01:54.802Z,5.63
2023-03-17T17:04:57.829Z,6.15
2023-03-17T17:08:00.900Z,7.72
2023-03-17T17:11:05.854Z,5.85
2023-03-17T17:14:08.984Z,6.40
2023-03-17T17:17:11.714Z,4.72
2023-03-17T17:20:17.679Z,7.15
2023-03-17T17:23:22.651Z,5.28
2023-03-17T17:26:26.998Z,6.03
2023-03-17T17:29:32.240Z,7.10
2023-03-17T17:32:36.158Z,8.38
2023-03-17T17:35:39.519Z,4.90
2023-03-17T17:38:42.721Z,5.30
2023-03-17T17:41:46.601Z,5.85
2023-03-17T17:44:49.281Z,5.00
2023-03-17T17:47:51.926Z,5.57
2023-03-17T17:50:57.600Z,4.60
2023-03-17T17:54:00.312Z,5.78
2023-03-17T17:57:05.367Z,6.80
